Greenville Farm
1800 N 800 E, North Logan
Last Weather Update:05/18/2012 9:00:00 AM
Date
ETo
ETc
Rain
Irrigation
Req
Temp
Max
Temp
Min
Temp
Avg
Avg RH
Avg Wind
Avg Solar
inches
inches
incehs
inches
F
F
F
%
%
watts/m2
04/01/2012 0.08" 0.00" 0.02" -0.01" 64.2° 33.0° 41.7° 57.5% 8.7 MPH 12.1w/m2
04/02/2012 0.13" 0.01" 0.00" 0.01" 51.3° 26.7° 38.4° 45.4% 6.0 MPH 23.4w/m2
04/03/2012 0.15" 0.01" 0.00" 0.01" 60.1° 30.4° 44.9° 45.2% 4.4 MPH 23.4w/m2
04/04/2012 0.17" 0.01" 0.00" 0.01" 66.0° 37.9° 49.9° 46.7% 5.3 MPH 23.5w/m2
04/05/2012 0.12" 0.01" 0.00" 0.01" 54.5° 29.6° 41.7° 45.1% 3.9 MPH 20.3w/m2
04/06/2012 0.06" 0.01" 0.17" -0.13" 40.9° 27.2° 33.4° 68.6% 4.6 MPH 11.7w/m2
04/07/2012 0.13" 0.02" 0.00" 0.02" 55.9° 25.1° 39.9° 45.5% 2.9 MPH 23.7w/m2
04/08/2012 0.17" 0.03" 0.00" 0.03" 67.6° 29.8° 48.4° 38.4% 3.3 MPH 24.9w/m2
04/09/2012 0.17" 0.03" 0.00" 0.03" 72.7° 32.9° 52.2° 32.9% 3.1 MPH 23.8w/m2
04/10/2012 0.17" 0.03" 0.00" 0.03" 75.0° 38.6° 56.1° 33.2% 3.5 MPH 21.2w/m2
04/11/2012 0.18" 0.04" 0.11" -0.05" 73.9° 40.8° 53.7° 43.8% 5.2 MPH 21.3w/m2
04/12/2012 0.05" 0.01" 0.52" -0.40" 46.4° 33.9° 40.3° 80.2% 4.8 MPH 8.3w/m2
04/13/2012 0.12" 0.03" 0.08" -0.03" 54.9° 33.2° 42.0° 67.9% 4.0 MPH 20.4w/m2
04/14/2012 0.12" 0.03" 0.00" 0.03" 56.8° 31.0° 44.3° 57.7% 3.3 MPH 18.7w/m2
04/15/2012 0.15" 0.05" 0.00" 0.05" 55.1° 32.1° 44.1° 44.9% 5.3 MPH 22.6w/m2
04/16/2012 0.15" 0.05" 0.00" 0.05" 58.3° 32.2° 46.0° 41.2% 3.7 MPH 22.9w/m2
04/17/2012 0.13" 0.04" 0.00" 0.04" 60.2° 43.6° 50.8° 51.7% 3.9 MPH 18.2w/m2
04/18/2012 0.05" 0.02" 0.32" -0.24" 52.5° 41.6° 47.1° 68.9% 3.6 MPH 7.3w/m2
04/19/2012 0.10" 0.04" 0.03" 0.01" 56.1° 39.7° 47.4° 75.2% 2.8 MPH 16.1w/m2
04/20/2012 0.13" 0.05" 0.00" 0.05" 67.6° 45.5° 54.8° 63.6% 2.3 MPH 18.6w/m2
04/21/2012 0.19" 0.08" 0.00" 0.08" 76.1° 41.5° 59.3° 53.3% 3.0 MPH 26.1w/m2
04/22/2012 0.19" 0.09" 0.00" 0.09" 81.1° 44.5° 62.8° 44.1% 3.3 MPH 24.6w/m2
04/23/2012 0.18" 0.08" 0.00" 0.08" 82.8° 48.6° 65.2° 42.9% 3.8 MPH 21.6w/m2
04/24/2012 0.20" 0.10" 0.00" 0.10" 79.9° 49.6° 65.6° 39.4% 4.1 MPH 23.3w/m2
04/25/2012 0.17" 0.08" 0.00" 0.08" 73.6° 53.3° 64.3° 44.8% 4.4 MPH 18.4w/m2
04/26/2012 0.17" 0.09" 0.06" 0.04" 73.5° 39.7° 60.3° 46.6% 6.3 MPH 15.5w/m2
04/27/2012 0.11" 0.06" 0.18" -0.09" 46.8° 32.5° 39.5° 64.4% 7.9 MPH 19.6w/m2
04/28/2012 0.14" 0.08" 0.27" -0.14" 52.5° 27.8° 40.2° 53.1% 3.6 MPH 25.6w/m2
04/29/2012 0.15" 0.09" 0.00" 0.09" 59.1° 33.4° 47.0° 51.9% 3.3 MPH 26.2w/m2
04/30/2012 0.15" 0.09" 0.00" 0.09" 67.8° 35.3° 53.4° 48.4% 5.3 MPH 16.0w/m2
Totals: 4.16" 1.34" 1.76" -0.06" 82.8° 25.1° 49.2° 51.4% 4.3 MPH 20.0w/m2